Time;durP1;ratioP1;P1;durP2;ratioP2;P2;SDS_P1;SDS_P2;PMS_P1;PMS_P2;Temp;Humidity;BMP_temperature;BMP_pressure;BME280_temperature;BME280_humidity;BME280_pressure;Samples;Min_cycle;Max_cycle;Signal;HPM_P1;HPM_P2
2021/06/25 00:02:16;;;;;;;;;24.75;23.75;;;;;19.39;43.14;101648.59;5070609;28;45510;-81
2021/06/25 00:04:41;;;;;;;;;27.25;22.25;;;;;19.36;43.47;101648.03;5077858;28;45377;-80
2021/06/25 00:07:07;;;;;;;;;22.25;21.00;;;;;19.33;44.05;101640.28;5063453;28;45389;-81
2021/06/25 00:09:32;;;;;;;;;25.00;24.50;;;;;19.28;43.59;101635.34;5077119;28;45415;-81
2021/06/25 00:11:58;;;;;;;;;26.50;23.00;;;;;19.29;43.51;101645.09;5075591;28;45420;-81
2021/06/25 00:14:23;;;;;;;;;26.50;20.25;;;;;19.29;43.82;101639.72;5072852;28;45338;-81
2021/06/25 00:16:50;;;;;;;;;24.25;22.25;;;;;19.27;43.79;101643.50;5073715;28;46207;-81
2021/06/25 00:19:16;;;;;;;;;25.00;22.50;;;;;19.24;43.85;101633.91;5076485;28;45986;-81
2021/06/25 00:21:42;;;;;;;;;24.50;22.00;;;;;19.23;43.96;101637.56;5065699;28;45501;-81
2021/06/25 00:24:08;;;;;;;;;22.50;21.25;;;;;19.22;44.88;101641.22;5074313;28;45367;-81
2021/06/25 00:26:33;;;;;;;;;27.50;23.50;;;;;19.18;44.10;101636.31;5065713;28;45441;-81
2021/06/25 00:28:59;;;;;;;;;26.50;23.25;;;;;19.13;45.18;101636.69;5070417;28;45775;-81
2021/06/25 00:31:24;;;;;;;;;25.75;22.00;;;;;19.13;45.52;101638.53;5065202;28;45346;-81
2021/06/25 00:33:49;;;;;;;;;26.50;24.75;;;;;19.07;45.06;101637.25;5069092;28;45391;-81
2021/06/25 00:36:15;;;;;;;;;24.50;22.00;;;;;19.05;45.88;101634.72;5070129;28;48359;-81
2021/06/25 00:38:40;;;;;;;;;26.50;25.00;;;;;18.99;45.65;101635.28;5081064;28;45219;-82
2021/06/25 00:41:06;;;;;;;;;25.75;22.25;;;;;18.96;46.18;101632.84;5069060;28;45490;-81
2021/06/25 00:43:31;;;;;;;;;24.75;20.50;;;;;18.92;45.87;101631.44;5078471;28;45240;-81
2021/06/25 00:45:57;;;;;;;;;23.25;19.75;;;;;18.90;46.29;101629.88;5071519;28;47215;-81
2021/06/25 00:48:22;;;;;;;;;28.75;24.00;;;;;18.88;45.91;101616.63;5063965;28;45478;-81
2021/06/25 00:50:48;;;;;;;;;28.25;21.25;;;;;18.88;46.83;101616.63;5076450;28;45304;-81
2021/06/25 00:53:13;;;;;;;;;25.00;19.75;;;;;18.86;47.07;101621.25;5074189;28;45473;-81
2021/06/25 00:55:42;;;;;;;;;19.75;19.50;;;;;18.83;47.56;101620.72;5072694;28;45995;-80
2021/06/25 00:58:16;;;;;;;;;26.25;23.00;;;;;18.83;46.48;101618.88;5072157;28;45448;-81
2021/06/25 01:00:43;;;;;;;;;25.25;23.00;;;;;18.82;46.51;101614.50;5071662;28;45468;-81
2021/06/25 01:03:09;;;;;;;;;22.00;21.00;;;;;18.79;46.64;101603.22;5067067;28;45484;-81
2021/06/25 01:05:35;;;;;;;;;26.75;21.50;;;;;18.78;46.91;101602.38;5068644;28;48485;-81
2021/06/25 01:08:01;;;;;;;;;24.00;20.75;;;;;18.77;46.84;101605.16;5072978;28;45417;-81
2021/06/25 01:10:26;;;;;;;;;24.00;21.25;;;;;18.75;47.36;101608.00;5064019;28;45339;-81
2021/06/25 01:12:52;;;;;;;;;28.00;23.25;;;;;18.73;47.89;101601.09;5069698;28;45344;-81
2021/06/25 01:15:17;;;;;;;;;28.25;23.50;;;;;18.72;46.90;101602.91;5072289;28;46291;-81
2021/06/25 01:17:44;;;;;;;;;25.00;23.00;;;;;18.68;47.78;101602.34;5066938;28;45813;-81
2021/06/25 01:20:13;;;;;;;;;23.00;19.00;;;;;18.69;47.10;101595.16;5071696;28;45444;-81
2021/06/25 01:22:41;;;;;;;;;31.00;27.75;;;;;18.69;47.42;101598.69;5073509;28;45556;-81
2021/06/25 01:25:14;;;;;;;;;25.50;22.75;;;;;18.63;47.42;101591.19;5071561;28;45330;-81
2021/06/25 01:27:40;;;;;;;;;23.00;22.00;;;;;18.60;47.37;101586.09;5064159;28;45743;-81
2021/06/25 01:30:10;;;;;;;;;32.25;26.25;;;;;18.59;47.45;101587.09;5069680;28;45458;-81
2021/06/25 01:32:36;;;;;;;;;32.25;25.75;;;;;18.59;47.47;101586.25;5065106;28;45545;-81
2021/06/25 01:35:02;;;;;;;;;25.25;20.75;;;;;18.58;47.03;101588.06;5067205;28;45488;-81
2021/06/25 01:37:28;;;;;;;;;22.25;21.50;;;;;18.57;47.32;101589.03;5072771;28;45647;-81
2021/06/25 01:39:54;;;;;;;;;30.50;25.50;;;;;18.56;47.42;101578.47;5075481;28;46753;-81
2021/06/25 01:42:19;;;;;;;;;26.00;23.50;;;;;18.56;47.34;101591.84;5074410;28;45492;-81
2021/06/25 01:44:46;;;;;;;;;25.25;21.00;;;;;18.57;47.84;101585.56;5076390;28;45277;-81
2021/06/25 01:47:11;;;;;;;;;28.75;25.25;;;;;18.54;47.71;101580.44;5070283;28;45549;-81
2021/06/25 01:49:37;;;;;;;;;29.50;24.50;;;;;18.53;47.94;101582.25;5074759;28;45483;-81
2021/06/25 01:52:04;;;;;;;;;27.25;24.00;;;;;18.55;47.88;101582.13;5069336;28;45306;-81
2021/06/25 01:54:29;;;;;;;;;26.25;24.75;;;;;18.51;47.92;101575.34;5068457;28;46346;-81
2021/06/25 01:56:54;;;;;;;;;25.50;22.50;;;;;18.54;47.57;101578.59;5068038;28;45843;-81
2021/06/25 01:59:22;;;;;;;;;22.00;21.75;;;;;18.54;47.36;101580.44;5076960;28;45548;-81
2021/06/25 02:01:47;;;;;;;;;24.50;23.75;;;;;18.50;48.38;101569.13;5067067;28;45509;-81
2021/06/25 02:04:13;;;;;;;;;28.75;22.00;;;;;18.46;48.13;101565.06;5064436;28;47027;-81
2021/06/25 02:06:38;;;;;;;;;24.25;21.75;;;;;18.46;48.77;101569.56;5063587;28;45380;-81
2021/06/25 02:09:04;;;;;;;;;35.00;24.50;;;;;18.43;47.92;101559.13;5074718;28;45461;-81
2021/06/25 02:11:29;;;;;;;;;24.25;23.00;;;;;18.39;48.09;101558.53;5067054;28;45520;-81
2021/06/25 02:13:55;;;;;;;;;25.00;24.00;;;;;18.39;48.31;101550.50;5062492;28;45880;-81
2021/06/25 02:16:20;;;;;;;;;27.00;23.75;;;;;18.37;47.93;101555.16;5063982;28;45521;-81
2021/06/25 02:18:46;;;;;;;;;26.00;25.00;;;;;18.37;48.33;101551.63;5077801;28;45548;-81
2021/06/25 02:21:11;;;;;;;;;19.25;16.25;;;;;18.38;48.27;101550.66;5067511;28;45479;-81
2021/06/25 02:23:37;;;;;;;;;22.75;22.00;;;;;18.37;48.40;101557.00;5067709;28;48250;-81
2021/06/25 02:26:03;;;;;;;;;27.50;22.75;;;;;18.38;48.50;101543.50;5071212;27;45532;-80
2021/06/25 02:28:28;;;;;;;;;26.00;25.00;;;;;18.32;48.43;101538.66;5075107;28;45276;-81
2021/06/25 02:30:55;;;;;;;;;28.50;23.75;;;;;18.32;48.80;101539.50;5069613;28;45600;-81
2021/06/25 02:33:20;;;;;;;;;22.50;22.00;;;;;18.29;48.65;101533.59;5064177;28;47257;-81
2021/06/25 02:35:46;;;;;;;;;25.75;22.50;;;;;18.29;49.09;101542.47;5067169;28;45662;-81
2021/06/25 02:38:11;;;;;;;;;27.75;23.25;;;;;18.32;48.56;101542.19;5079361;28;45498;-81
2021/06/25 02:40:37;;;;;;;;;24.25;21.00;;;;;18.30;48.72;101532.59;5073486;28;45491;-81
2021/06/25 02:43:02;;;;;;;;;22.75;22.50;;;;;18.25;48.79;101530.34;5075251;28;45495;-81
2021/06/25 02:45:28;;;;;;;;;27.75;24.00;;;;;18.26;49.09;101525.84;5068007;28;45422;-81
2021/06/25 02:47:53;;;;;;;;;28.25;25.00;;;;;18.25;49.15;101526.81;5073067;27;45417;-80
2021/06/25 02:50:18;;;;;;;;;26.75;21.25;;;;;18.26;48.91;101531.19;5068580;28;45448;-81
2021/06/25 02:52:44;;;;;;;;;24.25;23.25;;;;;18.21;49.17;101528.88;5074285;28;48062;-81
2021/06/25 02:55:11;;;;;;;;;26.25;23.50;;;;;18.20;49.30;101529.06;5076108;28;45401;-81
2021/06/25 02:57:37;;;;;;;;;23.25;22.50;;;;;18.14;49.42;101527.75;5078411;28;45338;-81
2021/06/25 03:00:05;;;;;;;;;32.50;25.50;;;;;18.15;49.49;101528.59;5069662;28;45718;-81
2021/06/25 03:02:30;;;;;;;;;23.50;23.00;;;;;18.12;49.55;101527.03;5074580;28;46264;-81
2021/06/25 03:04:56;;;;;;;;;28.50;25.25;;;;;18.13;49.43;101535.88;5074911;28;45527;-81
2021/06/25 03:07:21;;;;;;;;;29.00;23.00;;;;;18.11;49.69;101532.53;5062699;28;45446;-81
2021/06/25 03:09:46;;;;;;;;;34.25;25.75;;;;;18.11;48.87;101525.34;5069569;28;45453;-81
2021/06/25 03:12:12;;;;;;;;;26.50;23.25;;;;;18.07;49.41;101525.75;5070868;28;46124;-81
2021/06/25 03:14:39;;;;;;;;;26.75;22.00;;;;;18.04;49.39;101526.00;5077004;28;45442;-81
2021/06/25 03:17:05;;;;;;;;;32.75;27.25;;;;;18.02;49.37;101531.50;5076432;28;45600;-81
2021/06/25 03:19:30;;;;;;;;;28.00;27.00;;;;;18.02;49.65;101526.16;5067484;28;45405;-81
2021/06/25 03:21:55;;;;;;;;;24.75;22.75;;;;;17.99;49.45;101526.41;5069747;28;45650;-81
2021/06/25 03:24:21;;;;;;;;;31.00;24.50;;;;;17.96;49.65;101518.63;5077105;28;45428;-81
2021/06/25 03:26:46;;;;;;;;;28.50;23.50;;;;;17.98;49.95;101526.53;5071857;28;45293;-81
2021/06/25 03:29:12;;;;;;;;;30.50;25.75;;;;;17.97;49.87;101524.84;5072202;28;45343;-81
2021/06/25 03:31:37;;;;;;;;;27.75;23.50;;;;;17.94;49.86;101517.91;5068417;28;45463;-81
2021/06/25 03:34:02;;;;;;;;;27.50;26.50;;;;;17.94;49.99;101524.13;5082191;28;45207;-81
2021/06/25 03:36:28;;;;;;;;;24.50;22.25;;;;;17.95;50.07;101520.47;5073023;28;45416;-81
2021/06/25 03:38:53;;;;;;;;;27.75;23.50;;;;;17.91;50.07;101521.72;5066780;28;45593;-81
2021/06/25 03:41:19;;;;;;;;;26.25;24.00;;;;;17.91;50.16;101519.06;5074488;28;45488;-81
2021/06/25 03:43:44;;;;;;;;;29.00;24.50;;;;;17.93;50.38;101535.81;5081229;28;45220;-81
2021/06/25 03:46:10;;;;;;;;;29.00;24.50;;;;;17.90;50.28;101536.06;5074535;28;47129;-81
2021/06/25 03:48:35;;;;;;;;;32.25;27.00;;;;;17.91;50.64;101531.56;5075780;28;45709;-81
2021/06/25 03:51:01;;;;;;;;;27.50;26.00;;;;;17.97;50.30;101539.03;5072607;28;46101;-81
2021/06/25 03:53:26;;;;;;;;;32.75;25.75;;;;;17.99;50.45;101526.41;5076476;28;45432;-81
2021/06/25 03:56:10;;;;;;;;;32.25;25.00;;;;;18.05;50.28;101530.38;5076410;28;45393;-81
2021/06/25 03:58:37;;;;;;;;;33.50;27.25;;;;;18.07;50.45;101520.38;5070172;28;45533;-81
2021/06/25 04:01:03;;;;;;;;;28.50;25.50;;;;;18.11;50.26;101519.16;5075305;28;46208;-81
2021/06/25 04:03:28;;;;;;;;;32.75;29.50;;;;;18.12;50.70;101516.31;5075252;28;45421;-81
2021/06/25 04:05:54;;;;;;;;;27.50;23.75;;;;;18.19;50.29;101524.69;5073252;28;45688;-81
2021/06/25 04:08:19;;;;;;;;;27.50;24.75;;;;;18.21;50.62;101517.34;5074782;28;45608;-81
2021/06/25 04:10:45;;;;;;;;;31.00;28.00;;;;;18.21;50.21;101515.53;5066722;28;45457;-81
2021/06/25 04:13:10;;;;;;;;;31.25;25.75;;;;;18.27;50.20;101516.84;5073719;28;45394;-80
2021/06/25 04:15:36;;;;;;;;;24.50;23.75;;;;;18.30;50.32;101516.53;5074272;28;45378;-81
2021/06/25 04:18:03;;;;;;;;;27.00;26.00;;;;;18.32;50.36;101512.75;5067948;28;45384;-81
2021/06/25 04:20:28;;;;;;;;;27.25;24.75;;;;;18.36;50.01;101520.53;5073363;28;46193;-81
2021/06/25 04:22:54;;;;;;;;;27.25;23.00;;;;;18.36;50.37;101520.53;5067653;28;45365;-81
2021/06/25 04:25:19;;;;;;;;;29.00;26.00;;;;;18.37;50.38;101514.19;5071689;28;45339;-81
2021/06/25 04:27:44;;;;;;;;;31.50;25.00;;;;;18.37;50.67;101507.03;5063259;28;45363;-81
2021/06/25 04:30:12;;;;;;;;;31.50;27.00;;;;;18.43;50.52;101519.84;5064484;28;48232;-80
2021/06/25 04:32:38;;;;;;;;;26.25;23.50;;;;;18.46;50.49;101518.75;5066556;28;45673;-81
2021/06/25 04:35:04;;;;;;;;;32.25;25.25;;;;;18.47;50.16;101523.97;5074640;28;45308;-81
2021/06/25 04:37:30;;;;;;;;;27.00;25.50;;;;;18.46;50.04;101521.41;5070062;28;45752;-81
2021/06/25 04:39:55;;;;;;;;;31.75;24.50;;;;;18.48;50.73;101522.13;5072084;28;47304;-81
2021/06/25 04:42:20;;;;;;;;;30.50;26.00;;;;;18.46;50.53;101522.25;5060968;28;45276;-80
2021/06/25 04:44:46;;;;;;;;;26.00;24.00;;;;;18.49;50.50;101516.63;5076617;28;45479;-80
2021/06/25 04:47:11;;;;;;;;;32.00;27.25;;;;;18.55;50.23;101515.25;5076084;28;45364;-81
2021/06/25 04:49:38;;;;;;;;;31.25;25.25;;;;;18.60;50.07;101519.22;5064158;27;48133;-81
2021/06/25 04:52:05;;;;;;;;;31.50;27.00;;;;;18.68;50.37;101522.06;5069546;28;45339;-82
2021/06/25 04:54:31;;;;;;;;;27.50;25.00;;;;;18.72;50.17;101516.44;5079155;28;45498;-81
2021/06/25 04:56:56;;;;;;;;;32.75;26.25;;;;;18.72;49.88;101517.28;5070745;28;45889;-81
2021/06/25 04:59:21;;;;;;;;;29.75;26.00;;;;;18.71;49.71;101518.28;5067672;28;47165;-81
2021/06/25 05:01:47;;;;;;;;;34.75;27.50;;;;;18.74;50.05;101528.72;5068888;28;45499;-81
2021/06/25 05:04:13;;;;;;;;;26.00;24.00;;;;;18.80;49.80;101514.78;5079317;28;45438;-80
2021/06/25 05:06:38;;;;;;;;;31.25;25.75;;;;;18.83;49.74;101517.19;5065010;28;45440;-80
2021/06/25 05:09:04;;;;;;;;;33.50;28.50;;;;;18.89;49.44;101523.81;5071231;28;46041;-80
2021/06/25 05:11:29;;;;;;;;;31.75;25.50;;;;;18.88;49.21;101514.94;5068492;28;45712;-79
2021/06/25 05:13:55;;;;;;;;;36.00;27.50;;;;;18.91;49.10;101520.00;5067733;28;45481;-80
2021/06/25 05:16:20;;;;;;;;;29.50;27.75;;;;;18.93;49.13;101522.56;5070197;28;46313;-80
2021/06/25 05:18:46;;;;;;;;;32.00;26.00;;;;;18.94;48.91;101525.06;5066011;28;45597;-80
2021/06/25 05:21:11;;;;;;;;;30.75;25.50;;;;;18.93;49.01;101525.22;5060492;28;45381;-81
2021/06/25 05:23:37;;;;;;;;;30.75;27.50;;;;;18.90;48.96;101522.81;5072222;28;45354;-81
2021/06/25 05:26:03;;;;;;;;;26.25;23.00;;;;;18.90;48.89;101523.69;5060879;28;45509;-81
2021/06/25 05:28:28;;;;;;;;;30.25;25.25;;;;;18.91;48.53;101522.69;5060361;28;46322;-81
2021/06/25 05:30:57;;;;;;;;;31.25;27.50;;;;;18.94;48.77;101525.06;5060220;28;45485;-81
2021/06/25 05:33:23;;;;;;;;;35.25;28.00;;;;;18.97;49.23;101527.47;5067641;28;45539;-83
2021/06/25 05:35:48;;;;;;;;;38.50;27.50;;;;;19.02;48.99;101527.94;5069631;27;45834;-80
2021/06/25 05:38:14;;;;;;;;;27.25;26.50;;;;;19.02;49.66;101533.28;5070306;28;45738;-80
2021/06/25 05:40:43;;;;;;;;;32.75;27.00;;;;;19.01;49.56;101528.06;5065241;28;45533;-83
2021/06/25 05:43:10;;;;;;;;;31.00;26.50;;;;;19.05;49.38;101522.28;5066707;28;45457;-82
2021/06/25 05:45:37;;;;;;;;;34.00;27.25;;;;;19.11;49.71;101526.25;5064997;28;45637;-82
2021/06/25 05:48:04;;;;;;;;;35.50;28.25;;;;;19.08;49.42;101514.97;5058835;27;45576;-82
2021/06/25 05:50:30;;;;;;;;;38.25;29.25;;;;;19.08;49.80;101520.31;5063603;28;45758;-82
2021/06/25 05:52:56;;;;;;;;;33.75;27.00;;;;;19.10;49.49;101532.59;5062199;28;45541;-81
2021/06/25 05:55:22;;;;;;;;;27.00;25.50;;;;;19.04;49.29;101525.94;5068106;28;45572;-82
2021/06/25 05:57:48;;;;;;;;;32.00;28.25;;;;;19.04;49.56;101531.28;5064253;27;45376;-82
2021/06/25 06:00:16;;;;;;;;;29.75;28.25;;;;;19.02;49.91;101533.28;5068516;28;45480;-82
2021/06/25 06:02:45;;;;;;;;;29.50;24.50;;;;;19.00;49.60;101527.22;5059048;28;45367;-82
2021/06/25 06:05:11;;;;;;;;;32.50;28.25;;;;;19.07;49.72;101535.53;5063824;28;45572;-81
2021/06/25 06:07:37;;;;;;;;;35.00;30.00;;;;;19.14;49.04;101533.97;5060386;28;45783;-82
2021/06/25 06:10:04;;;;;;;;;38.25;29.00;;;;;19.14;49.33;101522.41;5075671;28;45449;-82
2021/06/25 06:12:30;;;;;;;;;30.75;27.50;;;;;19.17;48.74;101527.50;5071892;28;45231;-82
2021/06/25 06:14:56;;;;;;;;;34.25;29.25;;;;;19.21;48.58;101529.75;5070916;28;45541;-82
2021/06/25 06:17:22;;;;;;;;;32.25;28.00;;;;;19.21;48.20;101528.94;5061725;28;45483;-82
2021/06/25 06:19:53;;;;;;;;;30.50;25.00;;;;;19.21;47.66;101529.75;5061288;28;45468;-82
2021/06/25 06:31:41;;;;;;;;;30.25;24.50;;;;;19.33;47.21;101520.59;5062185;28;45460;-83
2021/06/25 06:36:19;;;;;;;;;25.75;23.25;;;;;19.47;46.41;101513.13;5066161;28;45393;-81
2021/06/25 06:38:45;;;;;;;;;23.50;22.75;;;;;19.48;46.52;101507.69;5065967;28;46571;-81
2021/06/25 06:41:11;;;;;;;;;24.50;23.25;;;;;19.54;46.51;101508.94;5060650;28;45421;-82
2021/06/25 06:43:39;;;;;;;;;22.25;20.50;;;;;19.59;46.63;101514.69;5058526;28;45388;-81
2021/06/25 06:46:04;;;;;;;;;28.75;27.00;;;;;19.66;46.69;101507.78;5067129;27;45535;-86
2021/06/25 06:48:30;;;;;;;;;30.25;26.25;;;;;19.73;45.96;101519.63;5061744;28;48248;-82
2021/06/25 06:50:55;;;;;;;;;29.75;25.75;;;;;19.82;45.50;101516.06;5058735;28;45556;-82
2021/06/25 06:53:21;;;;;;;;;29.25;24.50;;;;;19.90;45.57;101518.03;5058285;28;45429;-82
2021/06/25 06:56:16;;;;;;;;;29.00;25.50;;;;;20.07;45.82;101512.75;5067000;28;46481;-81
2021/06/25 07:02:00;;;;;;;;;29.50;24.75;;;;;20.70;44.98;101512.06;5054172;28;45360;-81
2021/06/25 07:04:31;;;;;;;;;28.00;25.75;;;;;21.04;44.19;101523.00;5075503;28;44769;-81
2021/06/25 07:07:04;;;;;;;;;27.25;22.25;;;;;21.25;43.61;101511.00;5062599;28;46746;-81
2021/06/25 07:09:32;;;;;;;;;34.75;28.25;;;;;21.48;43.23;101516.75;5059694;28;47158;-84
2021/06/25 07:12:07;;;;;;;;;;;;;;;;;;;;;
2021/06/25 07:14:33;;;;;;;;;27.75;26.25;;;;;21.89;41.45;101509.81;5060417;28;69400;-82
2021/06/25 07:17:04;;;;;;;;;26.50;23.25;;;;;21.97;41.31;101507.22;5066864;28;45584;-81
2021/06/25 07:19:54;;;;;;;;;;;;;;;;;;;;;
2021/06/25 07:22:22;;;;;;;;;31.75;25.50;;;;;22.03;41.39;101505.75;5061114;28;71555;-81
2021/06/25 07:25:24;;;;;;;;;26.50;24.25;;;;;22.15;41.24;101514.38;5058418;27;45352;-82
2021/06/25 07:27:49;;;;;;;;;26.00;21.00;;;;;22.16;41.75;101495.38;5070864;28;45862;-81
2021/06/25 07:30:15;;;;;;;;;27.25;22.00;;;;;22.28;41.14;101498.63;5061302;28;45508;-81
2021/06/25 07:32:41;;;;;;;;;25.75;22.00;;;;;22.35;39.95;101500.50;5066838;28;45345;-81
2021/06/25 07:35:07;;;;;;;;;24.50;22.00;;;;;22.29;39.63;101498.47;5074603;28;45242;-82
2021/06/25 07:37:33;;;;;;;;;27.00;21.00;;;;;22.29;40.51;101485.03;5074906;28;45488;-82
2021/06/25 07:39:58;;;;;;;;;23.25;19.75;;;;;22.30;39.68;101486.72;5071607;27;46293;-82
2021/06/25 07:42:25;;;;;;;;;23.25;20.00;;;;;22.33;40.45;101485.53;5073031;28;46551;-82
2021/06/25 07:44:51;;;;;;;;;30.50;24.00;;;;;22.32;39.43;101497.28;5074081;28;45391;-82
2021/06/25 07:47:18;;;;;;;;;21.50;19.50;;;;;22.38;39.93;101485.91;5062637;28;45524;-82
2021/06/25 07:49:43;;;;;;;;;24.00;23.00;;;;;22.58;40.03;101498.06;5071085;28;48133;-82
2021/06/25 07:52:09;;;;;;;;;30.00;22.00;;;;;22.79;39.14;101492.28;5064300;28;45542;-82
2021/06/25 07:54:49;;;;;;;;;29.00;24.75;;;;;22.93;38.26;101493.50;5072358;28;45515;-82
2021/06/25 07:57:14;;;;;;;;;22.25;21.25;;;;;23.17;38.52;101477.34;5070773;28;45434;-81
2021/06/25 07:59:40;;;;;;;;;21.00;20.50;;;;;24.06;37.82;101479.13;5071472;27;45826;-82
2021/06/25 08:02:05;;;;;;;;;24.00;20.25;;;;;27.25;35.91;101470.38;5071154;28;45508;-82
2021/06/25 08:04:31;;;;;;;;;24.00;22.25;;;;;30.70;27.95;101463.59;5070144;28;45441;-82
2021/06/25 08:06:57;;;;;;;;;23.25;21.25;;;;;34.01;27.43;101462.09;5071795;28;48665;-83
2021/06/25 08:09:23;;;;;;;;;20.25;20.25;;;;;35.32;23.56;101463.88;5071455;28;46023;-83
2021/06/25 08:11:49;;;;;;;;;25.75;22.75;;;;;35.06;24.74;101469.97;5067917;28;45812;-83
2021/06/25 08:14:14;;;;;;;;;23.75;20.00;;;;;35.25;23.80;101466.78;5065167;28;45468;-83
2021/06/25 08:16:39;;;;;;;;;23.25;18.00;;;;;35.28;24.19;101470.09;5068993;28;45610;-82
2021/06/25 08:19:07;;;;;;;;;23.50;21.25;;;;;34.64;22.84;101477.69;5074253;28;46220;-83
2021/06/25 08:21:35;;;;;;;;;23.75;22.00;;;;;33.87;23.05;101467.00;5070884;28;45443;-83
2021/06/25 08:24:06;;;;;;;;;25.50;20.50;;;;;33.48;23.43;101463.06;5069070;28;45402;-82
2021/06/25 08:26:37;;;;;;;;;19.00;18.00;;;;;33.36;24.24;101468.53;5069256;28;46709;-83
2021/06/25 08:29:05;;;;;;;;;19.25;17.75;;;;;33.45;23.67;101463.53;5061038;28;45721;-83
2021/06/25 08:31:34;;;;;;;;;22.25;18.50;;;;;32.92;23.80;101469.84;5069000;28;46226;-82
2021/06/25 08:34:00;;;;;;;;;24.00;21.00;;;;;32.11;22.98;101472.97;5074086;28;45847;-83
2021/06/25 08:36:28;;;;;;;;;18.25;17.75;;;;;31.44;24.67;101468.34;5066942;28;45565;-82
2021/06/25 08:38:58;;;;;;;;;21.00;19.50;;;;;31.15;23.34;101464.38;5068608;28;45476;-83
2021/06/25 08:41:34;;;;;;;;;19.00;19.00;;;;;30.97;24.53;101464.28;5069789;27;45419;-84
2021/06/25 08:44:01;;;;;;;;;25.50;20.00;;;;;30.41;24.71;101459.56;5071859;28;45319;-82
2021/06/25 08:46:30;;;;;;;;;25.00;21.25;;;;;30.09;25.10;101445.00;5061876;27;45377;-83
2021/06/25 08:49:03;;;;;;;;;27.75;22.00;;;;;29.98;26.23;101442.94;5063622;27;47869;-83
2021/06/25 08:51:42;;;;;;;;;;;;;;;;;;;;;
2021/06/25 08:54:09;;;;;;;;;29.75;25.25;;;;;31.26;25.61;101435.53;5071023;28;69110;-83
2021/06/25 08:56:42;;;;;;;;;28.50;25.25;;;;;32.21;23.55;101451.44;5064998;28;45740;-83
2021/06/25 08:59:18;;;;;;;;;25.25;22.00;;;;;32.50;23.02;101441.59;5068286;28;45867;-84
2021/06/25 09:01:49;;;;;;;;;25.75;23.75;;;;;32.80;22.92;101448.97;5067599;28;45347;-84
2021/06/25 09:04:45;;;;;;;;;21.50;21.50;;;;;33.81;21.18;101440.56;5072731;28;45459;-84
2021/06/25 09:07:12;;;;;;;;;24.00;22.25;;;;;33.27;21.05;101447.22;5063476;28;45537;-84
2021/06/25 09:09:57;;;;;;;;;22.50;17.75;;;;;33.27;21.85;101428.88;5066445;28;47064;-84
2021/06/25 09:13:06;;;;;;;;;;;;;;;;;;;;;
2021/06/25 09:15:48;;;;;;;;;;;;;;;;;;;;;
2021/06/25 09:18:14;;;;;;;;;19.50;19.50;;;;;36.38;19.00;101423.31;5069677;28;72107;-85
2021/06/25 09:21:19;;;;;;;;;18.75;17.00;;;;;37.42;18.62;101426.50;5066602;28;46978;-85
2021/06/25 09:24:00;;;;;;;;;17.75;15.25;;;;;37.58;17.47;101432.97;5060530;27;45429;-84
2021/06/25 09:26:32;;;;;;;;;17.25;17.00;;;;;38.15;18.13;101419.22;5067165;27;45411;-85
2021/06/25 09:29:19;;;;;;;;;21.00;15.75;;;;;38.83;17.73;101413.59;5069361;28;45479;-84
2021/06/25 09:31:56;;;;;;;;;14.75;14.75;;;;;38.66;16.74;101419.38;5067524;28;45552;-83
2021/06/25 09:34:46;;;;;;;;;16.25;14.25;;;;;37.89;17.01;101422.09;5068621;28;45322;-83
2021/06/25 09:37:20;;;;;;;;;14.75;14.75;;;;;36.93;17.86;101425.81;5063918;28;45770;-84
2021/06/25 09:40:00;;;;;;;;;14.00;12.75;;;;;36.38;18.71;101419.75;5067614;28;45552;-83
2021/06/25 09:42:26;;;;;;;;;13.25;13.25;;;;;36.56;18.48;101417.47;5061942;28;46379;-83
2021/06/25 09:44:58;;;;;;;;;13.25;13.25;;;;;36.96;18.36;101405.22;5070879;27;45469;-83
2021/06/25 09:47:47;;;;;;;;;14.50;14.50;;;;;38.28;17.99;101408.78;5063682;28;45478;-81
2021/06/25 09:50:53;;;;;;;;;;;;;;;;;;;;;
2021/06/25 09:53:21;;;;;;;;;13.25;13.25;;;;;38.64;17.50;101407.78;5066089;28;75862;-84
2021/06/25 09:55:58;;;;;;;;;17.25;15.25;;;;;38.00;17.50;101401.75;5061993;28;45567;-84
2021/06/25 10:01:32;;;;;;;;;17.00;16.00;;;;;35.72;19.26;101405.09;5065997;28;45556;-83
2021/06/25 10:03:59;;;;;;;;;14.50;13.50;;;;;35.56;19.55;101399.41;5059080;27;48071;-82
2021/06/25 10:06:34;;;;;;;;;15.00;12.00;;;;;35.33;19.63;101409.78;5064221;28;45772;-82
2021/06/25 10:08:59;;;;;;;;;13.50;12.75;;;;;34.97;20.02;101400.09;5068195;28;45485;-80
2021/06/25 10:11:27;;;;;;;;;14.75;13.00;;;;;34.89;20.43;101404.91;5069253;28;45496;-80
2021/06/25 10:13:55;;;;;;;;;13.50;12.00;;;;;35.53;20.34;101399.06;5069232;28;45494;-80
2021/06/25 10:16:22;;;;;;;;;10.50;9.50;;;;;36.14;19.94;101399.91;5063144;28;45783;-81
2021/06/25 10:18:50;;;;;;;;;12.50;12.00;;;;;35.79;20.41;101394.78;5070203;27;46635;-81
2021/06/25 10:21:18;;;;;;;;;14.50;11.25;;;;;35.59;20.14;101401.66;5060261;28;45467;-80
2021/06/25 10:23:51;;;;;;;;;16.00;14.00;;;;;35.91;19.71;101393.59;5062720;28;45653;-83
2021/06/25 10:26:19;;;;;;;;;9.00;9.00;;;;;36.19;19.61;101398.03;5061252;28;45619;-83
2021/06/25 10:28:46;;;;;;;;;11.75;11.00;;;;;35.66;19.80;101390.47;5058302;28;45493;-81
2021/06/25 10:31:14;;;;;;;;;13.75;13.25;;;;;34.58;20.78;101390.88;5063329;28;45487;-82
2021/06/25 10:33:40;;;;;;;;;11.00;9.75;;;;;33.88;21.50;101393.84;5068518;28;46975;-80
2021/06/25 10:36:08;;;;;;;;;14.00;12.00;;;;;33.25;22.60;101381.72;5059595;28;45492;-80
2021/06/25 10:38:35;;;;;;;;;11.25;10.00;;;;;32.79;23.19;101393.41;5061115;28;45471;-82
2021/06/25 10:41:04;;;;;;;;;11.00;11.00;;;;;32.33;23.71;101385.88;5057635;28;45564;-81
2021/06/25 10:43:51;;;;;;;;;8.50;8.50;;;;;32.13;24.06;101385.28;5063023;28;45470;-83
2021/06/25 10:46:26;;;;;;;;;13.75;12.75;;;;;32.66;24.12;101383.50;5059830;28;45745;-82
2021/06/25 10:48:53;;;;;;;;;13.75;12.75;;;;;32.59;23.92;101377.31;5064746;28;45470;-82
2021/06/25 10:51:26;;;;;;;;;12.00;11.25;;;;;32.19;24.65;101376.19;5062805;28;45543;-81
2021/06/25 10:54:14;;;;;;;;;9.75;9.00;;;;;31.77;24.55;101369.75;5067376;28;46043;-82
2021/06/25 10:57:01;;;;;;;;;12.00;11.00;;;;;31.26;25.31;101368.16;5064251;28;46905;-81
2021/06/25 10:59:29;;;;;;;;;9.50;9.00;;;;;30.81;25.69;101368.28;5064363;28;45452;-82
2021/06/25 11:02:06;;;;;;;;;10.25;8.25;;;;;30.41;25.98;101367.69;5061409;28;46277;-82
2021/06/25 11:04:38;;;;;;;;;8.00;8.00;;;;;30.09;26.93;101364.09;5062272;28;45537;-82
2021/06/25 11:07:09;;;;;;;;;8.00;8.00;;;;;29.92;26.49;101365.63;5061745;28;45475;-82
2021/06/25 11:09:52;;;;;;;;;9.00;8.50;;;;;29.61;26.72;101365.50;5067453;28;45543;-83
2021/06/25 11:12:20;;;;;;;;;8.25;8.25;;;;;29.47;27.36;101364.69;5065932;28;45519;-82
2021/06/25 11:14:46;;;;;;;;;11.00;8.25;;;;;29.23;27.66;101374.31;5063993;28;47347;-82
2021/06/25 11:17:50;;;;;;;;;10.25;8.00;;;;;29.13;28.11;101378.53;5061478;28;45814;-83
2021/06/25 11:20:28;;;;;;;;;7.75;7.50;;;;;29.14;28.41;101366.56;5062691;28;45388;-83
2021/06/25 11:23:08;;;;;;;;;10.25;10.00;;;;;29.07;29.37;101368.47;5066253;28;45650;-83
2021/06/25 11:25:49;;;;;;;;;10.00;8.00;;;;;28.94;29.26;101367.44;5060366;28;48317;-81
2021/06/25 11:28:21;;;;;;;;;12.00;9.00;;;;;28.87;30.08;101365.75;5060870;28;45819;-81
2021/06/25 11:31:22;;;;;;;;;7.75;7.00;;;;;28.59;30.94;101372.16;5068381;28;45429;-80
2021/06/25 11:33:47;;;;;;;;;8.00;7.00;;;;;28.18;32.81;101372.28;5057271;28;45426;-80
2021/06/25 11:36:27;;;;;;;;;9.50;9.00;;;;;28.00;32.66;101361.09;5062015;28;46492;-79
2021/06/25 11:38:53;;;;;;;;;10.00;7.00;;;;;27.80;32.15;101360.16;5087502;27;45479;-79
2021/06/25 11:41:20;;;;;;;;;10.25;9.50;;;;;27.59;34.16;101363.81;5061865;28;45353;-79
2021/06/25 11:43:50;;;;;;;;;10.00;9.00;;;;;27.38;36.22;101366.59;5061132;28;45309;-79
2021/06/25 11:46:16;;;;;;;;;10.25;10.25;;;;;27.22;37.31;101367.72;5063648;28;45452;-78